Rome Urbe Airport

LIRU · 拉齐奥, 意大利

罗盘
风向 的 风向 270° Urbe Airport 16/34
风: 7 kt, 3 beaufort

2 kt

7 kt
改变
0 1.000 2.000 3.000 4.000 5.000
FEW 3.000 ft
METAR LIRU 011650Z 27007KT 9999 FEW030 21/13 Q1018

METAR Urbe Airport - LIRU

Urbe Airport是Roma,意大利中的中型机场。 该机场有一条跑道: 16/34. 该领域的国际民航组织标志是LIRU.

这份报告是针对2022年10月1日 18:50, 当地时间在Urbe Airport进行的。

机场观察

风向为270°,速度为7 kt。

可见度为10 km 或者更多。

有几云在3.000 ft的高度。 没有观察到天花板。

温度和风寒是21 °C。 露点为13 °C,相对湿度为60%。 海平面上的气压为1018 hPa (QNH)。

白天

今天,太阳从07:07升起,在18:50降落。 这适用于Urbe Airport,世界夏令时可能有所不同。 当地时间与世界标准时间之间的时差为+2 小时。 夏令时目前正在进行中。

公司介绍

在这个机场,你可以找到飞行学校。 这个机场上的公司有Urbe Aero 和 Aviomar。

体会

到Vliegles.nl去找飞行课程,跳伞和其他飞行体验。 浏览页面,了解Urbe Airport附近所有可用的活动。 你也可以使用搜索功能来寻找你所在地附近的特定飞行课程、跳伞或其他飞行体验。

跑道

Id 标题 侧风 逆风 侧风 %
16/34 160°-340° 7 kt 2 kt 94 %

逆风成分最大的方向会被突出显示,并用于横风计算。 这并不一定意味着这个方向在使用。

乌云

3.000 ft FEW 几云

温度 & 天气

温度 21 °C
露点 13 °C
相对湿度 60%
Kp-index 1 (0-9)

白天

日出
07:06
中午
12:59
日落
18:52

小工具

你想在你的网站上有一个关于Urbe Airport的当前航空天气(METAR)的小部件吗?

</> 显示HTML代码

我们和第三方通过cookies跟踪您在我们网站上的上网行为。如果您继续,我们认为您同意我们的cookie政策。 了解更多